createdAt,value
2018-09-14T00:03:02.901Z,99.90
2018-09-14T00:08:05.111Z,99.70
2018-09-14T00:13:07.376Z,99.30
2018-09-14T00:18:09.570Z,99.90
2018-09-14T00:23:12.147Z,99.90
2018-09-14T00:28:14.350Z,99.30
2018-09-14T00:33:16.528Z,99.60
2018-09-14T00:38:18.697Z,99.40
2018-09-14T00:43:20.968Z,99.90
2018-09-14T00:48:23.429Z,99.90
2018-09-14T00:53:25.748Z,99.30
2018-09-14T00:58:27.955Z,99.90
2018-09-14T01:03:30.142Z,99.90
2018-09-14T01:08:32.355Z,99.90
2018-09-14T01:13:34.570Z,99.90
2018-09-14T01:18:38.140Z,99.90
2018-09-14T01:23:40.618Z,99.90
2018-09-14T01:28:42.894Z,99.90
2018-09-14T01:33:45.183Z,99.90
2018-09-14T01:38:47.499Z,99.90
2018-09-14T01:43:49.771Z,99.90
2018-09-14T01:54:00.967Z,99.90
2018-09-14T01:59:03.293Z,99.90
2018-09-14T02:04:05.839Z,99.90
2018-09-14T02:09:09.202Z,99.90
2018-09-14T02:14:11.453Z,99.90
2018-09-14T02:19:13.720Z,99.90
2018-09-14T02:24:15.993Z,99.90
2018-09-14T02:29:18.286Z,99.90
2018-09-14T02:34:20.526Z,99.90
2018-09-14T02:39:22.769Z,99.90
2018-09-14T02:44:26.654Z,99.90
2018-09-14T02:49:28.915Z,99.90
2018-09-14T02:54:33.166Z,99.90
2018-09-14T02:59:35.414Z,99.90
2018-09-14T03:04:37.643Z,99.90
2018-09-14T03:09:39.842Z,99.90
2018-09-14T03:14:42.035Z,99.60
2018-09-14T03:19:44.272Z,98.80
2018-09-14T03:24:46.429Z,97.80
2018-09-14T03:29:48.637Z,98.20
2018-09-14T03:34:50.802Z,97.10
2018-09-14T03:39:53.054Z,97.60
2018-09-14T03:44:55.415Z,98.30
2018-09-14T03:50:02.969Z,96.90
2018-09-14T03:55:05.603Z,97.20
2018-09-14T04:00:07.798Z,96.70
2018-09-14T04:05:09.973Z,97.50
2018-09-14T04:10:12.648Z,97.50
2018-09-14T04:15:14.797Z,97.20
2018-09-14T04:20:17.022Z,96.50
2018-09-14T04:25:19.240Z,95.50
2018-09-14T04:30:21.454Z,97.20
2018-09-14T04:35:23.646Z,95.30
2018-09-14T04:40:25.827Z,94.80
2018-09-14T04:45:28.015Z,94.80
2018-09-14T04:50:30.287Z,95.20
2018-09-14T04:55:32.487Z,94.70
2018-09-14T05:00:34.700Z,95.20
2018-09-14T05:05:37.661Z,95.20
2018-09-14T05:10:39.838Z,95.50
2018-09-14T05:15:42.030Z,96.30
2018-09-14T05:20:44.368Z,97.20
2018-09-14T05:25:46.505Z,97.00
2018-09-14T05:30:48.729Z,96.60
2018-09-14T05:35:50.885Z,96.90
2018-09-14T05:40:53.050Z,96.20
2018-09-14T05:45:55.254Z,96.00
2018-09-14T05:50:57.452Z,96.20
2018-09-14T05:55:59.641Z,94.00
2018-09-14T06:01:01.823Z,93.20
2018-09-14T06:06:04.182Z,93.10
2018-09-14T06:11:06.406Z,92.80
2018-09-14T06:16:08.632Z,91.20
2018-09-14T06:21:10.838Z,91.70
2018-09-14T06:26:13.033Z,90.50
2018-09-14T06:31:15.267Z,87.70
2018-09-14T06:36:17.465Z,87.10
2018-09-14T06:41:19.622Z,84.90
2018-09-14T06:46:21.810Z,84.00
2018-09-14T06:51:24.462Z,83.10
2018-09-14T06:56:26.794Z,81.70
2018-09-14T07:01:28.953Z,82.70
2018-09-14T07:06:31.801Z,83.70
2018-09-14T07:11:34.219Z,84.60
2018-09-14T07:16:36.350Z,82.30
2018-09-14T07:21:38.536Z,80.70
2018-09-14T07:26:40.766Z,82.50
2018-09-14T07:31:43.012Z,81.50
2018-09-14T07:36:45.192Z,80.90
2018-09-14T07:41:47.386Z,79.50
2018-09-14T07:46:49.570Z,78.10
2018-09-14T07:51:51.730Z,76.50
2018-09-14T07:56:53.916Z,75.30
2018-09-14T08:01:56.094Z,75.90
2018-09-14T08:06:58.749Z,76.10
2018-09-14T08:12:01.083Z,75.90
2018-09-14T08:17:03.287Z,74.80
2018-09-14T08:22:05.470Z,73.80
2018-09-14T08:27:07.704Z,75.60
2018-09-14T08:32:09.881Z,77.40
2018-09-14T08:37:12.161Z,77.10
2018-09-14T08:42:14.337Z,74.90
2018-09-14T08:47:16.791Z,73.20
2018-09-14T08:52:18.988Z,73.60
2018-09-14T08:57:21.273Z,73.00
2018-09-14T09:02:23.477Z,70.80
2018-09-14T09:07:26.406Z,69.40
2018-09-14T09:12:28.804Z,71.00
2018-09-14T09:17:31.016Z,68.90
2018-09-14T09:22:33.163Z,69.70
2018-09-14T09:27:35.337Z,70.20
2018-09-14T09:32:37.576Z,69.40
2018-09-14T09:37:39.740Z,69.50
2018-09-14T09:42:41.885Z,69.40
2018-09-14T09:47:44.068Z,68.40
2018-09-14T09:52:46.230Z,66.90
2018-09-14T09:57:48.412Z,63.00
2018-09-14T10:02:56.373Z,64.50
2018-09-14T10:07:58.534Z,64.40
2018-09-14T10:13:00.689Z,64.60
2018-09-14T10:18:02.894Z,58.10
2018-09-14T10:23:05.073Z,57.00
2018-09-14T10:28:07.242Z,57.10
2018-09-14T10:33:09.447Z,58.40
2018-09-14T10:38:11.621Z,57.40
2018-09-14T10:43:13.782Z,57.00
2018-09-14T10:48:15.961Z,58.50
2018-09-14T10:53:18.162Z,57.50
2018-09-14T10:58:20.338Z,57.60
2018-09-14T11:03:23.003Z,57.80
2018-09-14T11:08:25.304Z,54.90
2018-09-14T11:13:27.445Z,54.10
2018-09-14T11:18:29.669Z,53.30
2018-09-14T11:23:31.869Z,54.00
2018-09-14T11:28:34.029Z,55.30
2018-09-14T11:33:36.190Z,53.20
2018-09-14T11:38:38.568Z,52.90
2018-09-14T11:43:40.571Z,52.60
2018-09-14T11:48:42.741Z,51.60
2018-09-14T11:53:44.924Z,53.00
2018-09-14T11:58:47.125Z,52.90
2018-09-14T12:03:49.321Z,53.30
2018-09-14T12:08:51.989Z,51.80
2018-09-14T12:13:54.393Z,51.60
2018-09-14T12:18:56.477Z,49.80
2018-09-14T12:23:58.634Z,50.60
2018-09-14T12:29:00.817Z,50.80
2018-09-14T12:34:03.001Z,50.70
2018-09-14T12:39:07.054Z,49.70
2018-09-14T12:44:09.209Z,50.60
2018-09-14T12:49:11.353Z,51.30
2018-09-14T12:54:13.529Z,52.80
2018-09-14T12:59:15.681Z,52.90
2018-09-14T13:04:17.890Z,53.10
2018-09-14T13:09:19.992Z,52.10
2018-09-14T13:14:23.039Z,52.50
2018-09-14T13:19:25.192Z,52.00
2018-09-14T13:24:27.353Z,51.30
2018-09-14T13:29:29.510Z,50.10
2018-09-14T13:34:31.684Z,49.40
2018-09-14T13:39:33.885Z,49.50
2018-09-14T13:44:36.098Z,49.10
2018-09-14T13:49:38.276Z,50.10
2018-09-14T13:54:40.450Z,47.80
2018-09-14T13:59:42.642Z,48.30
2018-09-14T14:04:44.798Z,47.20
2018-09-14T14:09:47.011Z,46.70
2018-09-14T14:14:49.110Z,47.80
2018-09-14T14:19:51.259Z,47.10
2018-09-14T14:24:53.407Z,46.40
2018-09-14T14:29:55.670Z,45.50
2018-09-14T14:34:57.841Z,44.40
2018-09-14T14:40:00.488Z,44.20
2018-09-14T14:45:03.220Z,45.70
2018-09-14T14:50:05.405Z,45.00
2018-09-14T14:55:07.678Z,43.40
2018-09-14T15:00:10.031Z,43.60
2018-09-14T15:05:12.245Z,43.80
2018-09-14T15:10:14.386Z,43.50
2018-09-14T15:15:17.100Z,43.30
2018-09-14T15:20:19.314Z,43.10
2018-09-14T15:25:21.477Z,43.90
2018-09-14T15:30:23.648Z,43.30
2018-09-14T15:35:25.809Z,43.70
2018-09-14T15:40:27.941Z,43.30
2018-09-14T15:45:30.108Z,43.60
2018-09-14T15:50:32.330Z,43.30
2018-09-14T15:55:34.512Z,43.40
2018-09-14T16:00:36.745Z,44.40
2018-09-14T16:05:39.077Z,44.20
2018-09-14T16:10:41.221Z,44.70
2018-09-14T16:15:43.521Z,45.40
2018-09-14T16:20:45.684Z,46.70
2018-09-14T16:25:47.837Z,46.90
2018-09-14T16:30:50.026Z,46.80
2018-09-14T16:35:52.183Z,46.90
2018-09-14T16:40:54.355Z,48.00
2018-09-14T16:45:56.503Z,47.90
2018-09-14T16:50:58.693Z,48.30
2018-09-14T16:56:02.665Z,48.90
2018-09-14T17:01:05.217Z,49.20
2018-09-14T17:06:07.389Z,49.70
2018-09-14T17:11:09.540Z,49.70
2018-09-14T17:16:11.722Z,50.40
2018-09-14T17:21:13.890Z,49.80
2018-09-14T17:26:16.055Z,50.10
2018-09-14T17:31:18.222Z,49.40
2018-09-14T17:36:20.390Z,49.20
2018-09-14T17:41:22.561Z,48.40
2018-09-14T17:46:25.598Z,49.10
2018-09-14T18:01:01.052Z,49.60
2018-09-14T18:06:03.201Z,49.70
2018-09-14T18:11:05.401Z,48.90
2018-09-14T18:16:07.550Z,50.30
2018-09-14T18:21:09.702Z,52.00
2018-09-14T18:26:11.841Z,53.20
2018-09-14T18:31:13.997Z,53.60
2018-09-14T18:36:16.277Z,52.70
2018-09-14T18:41:18.354Z,52.70
2018-09-14T18:46:20.540Z,54.10
2018-09-14T18:51:22.685Z,54.30
2018-09-14T18:56:24.863Z,54.90
2018-09-14T19:01:27.047Z,55.40
2018-09-14T19:06:29.205Z,55.20
2018-09-14T19:11:31.522Z,55.60
2018-09-14T19:16:34.633Z,56.80
2018-09-14T19:21:36.928Z,57.30
2018-09-14T19:26:39.049Z,57.20
2018-09-14T19:31:41.975Z,58.60
2018-09-14T19:36:44.261Z,58.40
2018-09-14T19:41:46.430Z,58.40
2018-09-14T19:46:48.569Z,59.40
2018-09-14T19:51:50.710Z,59.50
2018-09-14T19:56:52.861Z,59.40
2018-09-14T20:01:55.021Z,59.80
2018-09-14T20:06:57.329Z,60.60
2018-09-14T20:11:59.524Z,61.30
2018-09-14T20:17:01.621Z,61.50
2018-09-14T20:22:04.190Z,62.30
2018-09-14T20:27:12.536Z,61.40
2018-09-14T20:32:21.162Z,62.80
2018-09-14T20:37:29.501Z,63.00
2018-09-14T20:42:37.841Z,64.70
2018-09-14T20:47:46.186Z,65.80
2018-09-14T20:52:54.593Z,63.40
2018-09-14T20:58:02.888Z,63.40
2018-09-14T21:03:11.306Z,63.10
2018-09-14T21:08:19.586Z,63.60
2018-09-14T21:13:27.923Z,64.20
2018-09-14T21:18:36.322Z,64.20
2018-09-14T21:23:44.569Z,64.70
2018-09-14T21:28:52.898Z,65.40
2018-09-14T21:34:01.238Z,66.50
2018-09-14T21:39:10.679Z,64.90
2018-09-14T21:44:19.001Z,64.40
2018-09-14T21:49:27.366Z,64.80
2018-09-14T21:54:35.637Z,64.30
2018-09-14T21:59:43.923Z,63.70
2018-09-14T22:04:52.394Z,65.50
2018-09-14T22:10:00.593Z,64.90
2018-09-14T22:15:08.897Z,61.40
2018-09-14T22:20:17.213Z,60.40
2018-09-14T22:25:25.497Z,59.00
2018-09-14T22:30:33.894Z,58.80
2018-09-14T22:35:42.289Z,58.20
2018-09-14T22:40:50.822Z,59.60
2018-09-14T22:45:59.173Z,56.50
2018-09-14T22:51:07.479Z,55.90
2018-09-14T22:56:15.758Z,54.90
2018-09-14T23:01:24.118Z,55.00
2018-09-14T23:06:32.433Z,55.10
2018-09-14T23:11:40.864Z,55.10
2018-09-14T23:16:49.146Z,55.70
2018-09-14T23:21:57.369Z,56.30
2018-09-14T23:27:05.693Z,57.50
2018-09-14T23:32:13.983Z,58.60
2018-09-14T23:37:22.301Z,59.10
2018-09-14T23:42:30.591Z,59.40
2018-09-14T23:47:38.958Z,59.10
2018-09-14T23:52:47.176Z,59.20
2018-09-14T23:57:55.471Z,61.20
